Aviation Digital Data Service (ADDS)

Output produced by METARs form (1200 UTC 26 March 2019)
found at http://www.aviationweather.gov/metar/data/
 
KWJF 261123Z 2612/2712 28008KT P6SM BKN200 
     FM261400 VRB03KT P6SM BKN200 
     FM261900 27010KT P6SM BKN150 
     FM262200 25015G25KT P6SM SCT080 OVC150 
     FM270200 25012KT P6SM SCT050 OVC100
       
KWMC 261120Z 2612/2712 VRB06KT P6SM BKN070
       
TAF AMD KWRB 260815Z 2608/2711 32006KT 9999 SKC QNH2991INS 
     BECMG 2610/2611 32003KT 8000 BR FEW008 QNH2996INS 
     BECMG 2614/2615 05012G18KT 9999 NSW SCT030 BKN050 QNH3005INS 
     BECMG 2706/2707 06009KT 9999 FEW250 QNH3022INS TX24/2621Z TN11/2611Z
       
TAF KWRI 261000Z 2610/2716 33010KT 9999 SCT050 QNH3014INS 
     BECMG 2611/2612 01015G25KT 9999 SKC QNH3022INS 
     BECMG 2614/2615 02009KT 9999 SKC QNH3032INS TX07/2620Z TNM02/2708Z
       
KWRL 261121Z 2612/2712 14008KT P6SM BKN200